This is the latest recevied weather packets stored in our database for station/object MEGLR. If no packets are shown the sender has not sent any weather packets the latest 10 day(s).
| Time | Temp. | Humidity | Pressure | Rain* | Wind** | Luminosity | Snow |
|---|---|---|---|---|---|---|---|
| 1777794003 | 12.78° C | 93% | 0 hPa | - | - | - | - |
| 1777793404 | 12.22° C | 94% | 0 hPa | - | - | - | - |
| 1777792803 | 12.22° C | 95% | 0 hPa | - | - | - | - |
| 1777792203 | 12.22° C | 94% | 0 hPa | - | - | - | - |
| 1777791604 | 12.78° C | 93% | 0 hPa | - | - | - | - |
| 1777791003 | 12.78° C | 92% | 0 hPa | - | - | - | - |
| 1777790403 | 12.78° C | 96% | 0 hPa | - | - | - | - |
| 1777789803 | 12.22° C | 97% | 0 hPa | - | - | - | - |
| 1777789203 | 11.67° C | 95% | 0 hPa | - | - | - | - |
| 1777788603 | 12.78° C | 89% | 0 hPa | - | - | - | - |
| 1777788003 | 13.33° C | 88% | 0 hPa | - | - | - | - |
| 1777787403 | 13.89° C | 87% | 0 hPa | - | - | - | - |
| 1777786803 | 13.89° C | 86% | 0 hPa | - | - | - | - |
| 1777786202 | 13.89° C | 88% | 0 hPa | - | - | - | - |
| 1777785603 | 13.33° C | 88% | 0 hPa | - | - | - | - |
| 1777785003 | 13.33° C | 88% | 0 hPa | - | - | - | - |
| 1777784403 | 13.89° C | 85% | 0 hPa | - | - | - | - |
| 1777783803 | 13.89° C | 87% | 0 hPa | - | - | - | - |
| 1777783203 | 13.33° C | 89% | 0 hPa | - | - | - | - |
| 1777782604 | 12.78° C | 90% | 0 hPa | - | - | - | - |
| 1777782002 | 12.78° C | 89% | 0 hPa | - | - | - | - |
| 1777781403 | 12.78° C | 90% | 0 hPa | - | - | - | - |
| 1777780803 | 12.78° C | 89% | 0 hPa | - | - | - | - |
| 1777780203 | 13.33° C | 88% | 0 hPa | - | - | - | - |
| 1777779603 | 13.33° C | 86% | 0 hPa | - | - | - | - |
* Rain since midnight (hover to see other rain measurements)
** Current wind speed in m/s (hover to see current wind gust speed)